Nearby METAR Reports

 

EGAA - Belfast International Airport
Distance from station: W 19.6km
Updated: 18/12/2017 19:50
Mostly cloudy
Mostly cloudy
 Wind from S
Wind: S 13 km/h
Temperature: 7°C
Wind Chill: 5°C
Dew Point: 5°C
Humidity: 87%
Barometer: 1029 hPa
Clouds: Mostly cloudy
Visibility: 10 km
Cloud details: Partly cloudy 549 m
Mostly cloudy 792 m
2017/12/18 19:50 EGAA 181950Z 19007KT 9999 SCT018 BKN026 07/05 Q1029
EGAC - George Best Belfast City Airport
Distance from station: SE 6.4km
Updated: 18/12/2017 19:50
Mostly cloudy
Mostly cloudy
 Wind from S
Wind: S 7 km/h
Temperature: 8°C
Wind Chill: 7°C
Dew Point: 5°C
Humidity: 82%
Barometer: 1029 hPa
Clouds: Mostly cloudy
Visibility: 10 km
Cloud details: Few Clouds 823 m
Mostly cloudy 1189 m
2017/12/18 19:50 EGAC 181950Z 17004KT 9999 FEW027 BKN039 08/05 Q1029